sensor_id;sensor_type;location;lat;lon;timestamp;P1;durP1;ratioP1;P2;durP2;ratioP2
56537;SDS011;42435;53.292;6.000;2024-01-15T00:00:09;16.23;;;4.53;;
56537;SDS011;42435;53.292;6.000;2024-01-15T00:02:35;16.17;;;3.50;;
56537;SDS011;42435;53.292;6.000;2024-01-15T00:05:00;14.77;;;2.50;;
56537;SDS011;42435;53.292;6.000;2024-01-15T00:07:26;9.93;;;2.95;;
56537;SDS011;42435;53.292;6.000;2024-01-15T00:09:51;16.08;;;2.72;;
56537;SDS011;42435;53.292;6.000;2024-01-15T00:12:17;15.23;;;3.00;;
56537;SDS011;42435;53.292;6.000;2024-01-15T00:14:43;16.08;;;2.00;;
56537;SDS011;42435;53.292;6.000;2024-01-15T00:17:08;18.75;;;3.35;;
56537;SDS011;42435;53.292;6.000;2024-01-15T00:19:34;16.25;;;2.95;;
56537;SDS011;42435;53.292;6.000;2024-01-15T00:21:59;18.45;;;2.83;;
56537;SDS011;42435;53.292;6.000;2024-01-15T00:24:25;11.98;;;2.70;;
56537;SDS011;42435;53.292;6.000;2024-01-15T00:26:51;11.05;;;2.17;;
56537;SDS011;42435;53.292;6.000;2024-01-15T00:29:18;12.52;;;1.60;;
56537;SDS011;42435;53.292;6.000;2024-01-15T00:31:44;9.90;;;1.48;;
56537;SDS011;42435;53.292;6.000;2024-01-15T00:34:09;7.78;;;1.40;;
56537;SDS011;42435;53.292;6.000;2024-01-15T00:36:35;9.23;;;1.33;;
56537;SDS011;42435;53.292;6.000;2024-01-15T00:39:01;10.70;;;2.13;;
56537;SDS011;42435;53.292;6.000;2024-01-15T00:41:26;7.75;;;1.20;;
56537;SDS011;42435;53.292;6.000;2024-01-15T00:43:53;6.95;;;1.45;;
56537;SDS011;42435;53.292;6.000;2024-01-15T00:46:18;7.90;;;1.58;;
56537;SDS011;42435;53.292;6.000;2024-01-15T00:48:44;13.70;;;2.13;;
56537;SDS011;42435;53.292;6.000;2024-01-15T00:51:10;9.15;;;1.52;;
56537;SDS011;42435;53.292;6.000;2024-01-15T00:53:35;12.40;;;1.58;;
56537;SDS011;42435;53.292;6.000;2024-01-15T00:56:01;6.60;;;1.10;;
56537;SDS011;42435;53.292;6.000;2024-01-15T00:58:28;5.90;;;1.13;;
56537;SDS011;42435;53.292;6.000;2024-01-15T01:00:53;8.27;;;1.05;;
56537;SDS011;42435;53.292;6.000;2024-01-15T01:03:20;9.80;;;1.70;;
56537;SDS011;42435;53.292;6.000;2024-01-15T01:05:46;6.15;;;0.90;;
56537;SDS011;42435;53.292;6.000;2024-01-15T01:08:15;4.40;;;0.90;;
56537;SDS011;42435;53.292;6.000;2024-01-15T01:10:41;3.53;;;0.40;;
56537;SDS011;42435;53.292;6.000;2024-01-15T01:13:08;4.70;;;0.50;;
56537;SDS011;42435;53.292;6.000;2024-01-15T01:15:34;4.13;;;0.50;;
56537;SDS011;42435;53.292;6.000;2024-01-15T01:17:59;6.53;;;0.75;;
56537;SDS011;42435;53.292;6.000;2024-01-15T01:20:25;2.30;;;0.50;;
56537;SDS011;42435;53.292;6.000;2024-01-15T01:22:51;3.38;;;0.63;;
56537;SDS011;42435;53.292;6.000;2024-01-15T01:25:17;3.00;;;0.68;;
56537;SDS011;42435;53.292;6.000;2024-01-15T01:27:42;7.43;;;1.10;;
56537;SDS011;42435;53.292;6.000;2024-01-15T01:30:08;6.20;;;1.30;;
56537;SDS011;42435;53.292;6.000;2024-01-15T01:32:34;7.65;;;1.60;;
56537;SDS011;42435;53.292;6.000;2024-01-15T01:35:00;10.73;;;2.08;;
56537;SDS011;42435;53.292;6.000;2024-01-15T01:37:26;12.30;;;2.65;;
56537;SDS011;42435;53.292;6.000;2024-01-15T01:39:51;15.02;;;2.95;;
56537;SDS011;42435;53.292;6.000;2024-01-15T01:42:17;13.20;;;3.53;;
56537;SDS011;42435;53.292;6.000;2024-01-15T01:44:42;12.70;;;2.45;;
56537;SDS011;42435;53.292;6.000;2024-01-15T01:47:08;12.90;;;2.95;;
56537;SDS011;42435;53.292;6.000;2024-01-15T01:49:34;13.20;;;2.67;;
56537;SDS011;42435;53.292;6.000;2024-01-15T01:52:01;15.90;;;3.45;;
56537;SDS011;42435;53.292;6.000;2024-01-15T01:54:29;18.27;;;2.50;;
56537;SDS011;42435;53.292;6.000;2024-01-15T01:56:56;16.45;;;4.40;;
56537;SDS011;42435;53.292;6.000;2024-01-15T01:59:22;10.00;;;2.05;;
56537;SDS011;42435;53.292;6.000;2024-01-15T02:01:51;23.20;;;2.95;;
56537;SDS011;42435;53.292;6.000;2024-01-15T02:04:19;12.20;;;1.92;;
56537;SDS011;42435;53.292;6.000;2024-01-15T02:06:45;7.13;;;1.33;;
56537;SDS011;42435;53.292;6.000;2024-01-15T02:09:11;11.32;;;1.65;;
56537;SDS011;42435;53.292;6.000;2024-01-15T02:11:40;9.30;;;2.03;;
56537;SDS011;42435;53.292;6.000;2024-01-15T02:14:06;7.30;;;1.50;;
56537;SDS011;42435;53.292;6.000;2024-01-15T02:16:32;7.07;;;1.10;;
56537;SDS011;42435;53.292;6.000;2024-01-15T02:18:57;8.20;;;1.65;;
56537;SDS011;42435;53.292;6.000;2024-01-15T02:21:23;8.65;;;1.30;;
56537;SDS011;42435;53.292;6.000;2024-01-15T02:23:51;5.13;;;1.05;;
56537;SDS011;42435;53.292;6.000;2024-01-15T02:26:17;10.02;;;1.60;;
56537;SDS011;42435;53.292;6.000;2024-01-15T02:28:42;8.05;;;1.80;;
56537;SDS011;42435;53.292;6.000;2024-01-15T02:31:09;11.25;;;2.30;;
56537;SDS011;42435;53.292;6.000;2024-01-15T02:33:35;13.30;;;2.03;;
56537;SDS011;42435;53.292;6.000;2024-01-15T02:36:00;13.68;;;2.60;;
56537;SDS011;42435;53.292;6.000;2024-01-15T02:38:26;11.95;;;2.17;;
56537;SDS011;42435;53.292;6.000;2024-01-15T02:40:52;16.30;;;3.28;;
56537;SDS011;42435;53.292;6.000;2024-01-15T02:43:17;12.60;;;2.33;;
56537;SDS011;42435;53.292;6.000;2024-01-15T02:45:44;11.27;;;2.92;;
56537;SDS011;42435;53.292;6.000;2024-01-15T02:48:10;17.65;;;3.67;;
56537;SDS011;42435;53.292;6.000;2024-01-15T02:50:36;12.32;;;2.50;;
56537;SDS011;42435;53.292;6.000;2024-01-15T02:53:02;14.52;;;2.45;;
56537;SDS011;42435;53.292;6.000;2024-01-15T02:55:28;18.10;;;2.53;;
56537;SDS011;42435;53.292;6.000;2024-01-15T02:57:54;15.30;;;3.03;;
56537;SDS011;42435;53.292;6.000;2024-01-15T03:00:20;13.68;;;2.85;;
56537;SDS011;42435;53.292;6.000;2024-01-15T03:02:45;18.02;;;3.38;;
56537;SDS011;42435;53.292;6.000;2024-01-15T03:05:11;10.88;;;1.70;;
56537;SDS011;42435;53.292;6.000;2024-01-15T03:07:37;10.18;;;2.38;;
56537;SDS011;42435;53.292;6.000;2024-01-15T03:10:06;12.98;;;3.25;;
56537;SDS011;42435;53.292;6.000;2024-01-15T03:12:32;25.65;;;5.70;;
56537;SDS011;42435;53.292;6.000;2024-01-15T03:14:58;13.82;;;1.88;;
56537;SDS011;42435;53.292;6.000;2024-01-15T03:17:23;8.70;;;2.47;;
56537;SDS011;42435;53.292;6.000;2024-01-15T03:19:49;6.75;;;1.33;;
56537;SDS011;42435;53.292;6.000;2024-01-15T03:22:15;5.68;;;0.70;;
56537;SDS011;42435;53.292;6.000;2024-01-15T03:24:41;4.05;;;0.60;;
56537;SDS011;42435;53.292;6.000;2024-01-15T03:27:07;8.45;;;1.20;;
56537;SDS011;42435;53.292;6.000;2024-01-15T03:29:33;8.13;;;2.05;;
56537;SDS011;42435;53.292;6.000;2024-01-15T03:31:59;11.40;;;2.72;;
56537;SDS011;42435;53.292;6.000;2024-01-15T03:34:24;11.80;;;2.03;;
56537;SDS011;42435;53.292;6.000;2024-01-15T03:36:50;12.80;;;2.95;;
56537;SDS011;42435;53.292;6.000;2024-01-15T03:39:16;15.90;;;2.50;;
56537;SDS011;42435;53.292;6.000;2024-01-15T03:41:41;19.30;;;3.10;;
56537;SDS011;42435;53.292;6.000;2024-01-15T03:44:07;15.93;;;2.88;;
56537;SDS011;42435;53.292;6.000;2024-01-15T03:46:32;17.75;;;2.55;;
56537;SDS011;42435;53.292;6.000;2024-01-15T03:48:58;11.70;;;1.67;;
56537;SDS011;42435;53.292;6.000;2024-01-15T03:51:24;12.80;;;2.95;;
56537;SDS011;42435;53.292;6.000;2024-01-15T03:53:50;4.30;;;1.05;;
56537;SDS011;42435;53.292;6.000;2024-01-15T03:56:15;8.27;;;1.40;;
56537;SDS011;42435;53.292;6.000;2024-01-15T03:58:42;6.20;;;0.88;;
56537;SDS011;42435;53.292;6.000;2024-01-15T04:01:08;3.22;;;0.65;;
56537;SDS011;42435;53.292;6.000;2024-01-15T04:03:34;4.30;;;0.60;;
56537;SDS011;42435;53.292;6.000;2024-01-15T04:06:00;5.82;;;0.55;;
56537;SDS011;42435;53.292;6.000;2024-01-15T04:08:26;3.60;;;0.68;;
56537;SDS011;42435;53.292;6.000;2024-01-15T04:10:51;5.32;;;0.77;;
56537;SDS011;42435;53.292;6.000;2024-01-15T04:13:17;10.73;;;1.42;;
56537;SDS011;42435;53.292;6.000;2024-01-15T04:15:43;6.63;;;1.00;;
56537;SDS011;42435;53.292;6.000;2024-01-15T04:18:08;6.32;;;0.80;;
56537;SDS011;42435;53.292;6.000;2024-01-15T04:20:34;5.15;;;0.90;;
56537;SDS011;42435;53.292;6.000;2024-01-15T04:23:00;9.00;;;1.45;;
56537;SDS011;42435;53.292;6.000;2024-01-15T04:25:25;10.65;;;1.58;;
56537;SDS011;42435;53.292;6.000;2024-01-15T04:27:51;9.02;;;2.50;;
56537;SDS011;42435;53.292;6.000;2024-01-15T04:30:16;14.73;;;2.55;;
56537;SDS011;42435;53.292;6.000;2024-01-15T04:32:42;19.35;;;3.45;;
56537;SDS011;42435;53.292;6.000;2024-01-15T04:35:08;9.73;;;2.08;;
56537;SDS011;42435;53.292;6.000;2024-01-15T04:37:33;8.45;;;2.45;;
56537;SDS011;42435;53.292;6.000;2024-01-15T04:39:59;11.43;;;2.25;;
56537;SDS011;42435;53.292;6.000;2024-01-15T04:42:25;17.35;;;3.00;;
56537;SDS011;42435;53.292;6.000;2024-01-15T04:44:51;10.10;;;2.22;;
56537;SDS011;42435;53.292;6.000;2024-01-15T04:47:17;12.48;;;1.75;;
56537;SDS011;42435;53.292;6.000;2024-01-15T04:49:42;11.23;;;2.47;;
56537;SDS011;42435;53.292;6.000;2024-01-15T04:52:08;9.18;;;2.00;;
56537;SDS011;42435;53.292;6.000;2024-01-15T04:54:35;13.48;;;2.45;;
56537;SDS011;42435;53.292;6.000;2024-01-15T04:57:01;14.80;;;2.40;;
56537;SDS011;42435;53.292;6.000;2024-01-15T04:59:27;13.52;;;3.38;;
56537;SDS011;42435;53.292;6.000;2024-01-15T05:01:53;8.80;;;2.05;;
56537;SDS011;42435;53.292;6.000;2024-01-15T05:04:19;15.07;;;2.47;;
56537;SDS011;42435;53.292;6.000;2024-01-15T05:06:45;10.60;;;2.70;;
56537;SDS011;42435;53.292;6.000;2024-01-15T05:09:11;18.83;;;2.83;;
56537;SDS011;42435;53.292;6.000;2024-01-15T05:11:41;16.23;;;3.15;;
56537;SDS011;42435;53.292;6.000;2024-01-15T05:14:07;15.70;;;3.72;;
56537;SDS011;42435;53.292;6.000;2024-01-15T05:16:32;15.95;;;3.15;;
56537;SDS011;42435;53.292;6.000;2024-01-15T05:18:58;20.15;;;3.55;;
56537;SDS011;42435;53.292;6.000;2024-01-15T05:21:24;15.25;;;2.95;;
56537;SDS011;42435;53.292;6.000;2024-01-15T05:23:49;22.33;;;3.83;;
56537;SDS011;42435;53.292;6.000;2024-01-15T05:26:15;17.98;;;3.25;;
56537;SDS011;42435;53.292;6.000;2024-01-15T05:28:42;21.73;;;3.33;;
56537;SDS011;42435;53.292;6.000;2024-01-15T05:31:08;20.33;;;3.88;;
56537;SDS011;42435;53.292;6.000;2024-01-15T05:33:34;13.77;;;3.28;;
56537;SDS011;42435;53.292;6.000;2024-01-15T05:35:59;21.95;;;5.13;;
56537;SDS011;42435;53.292;6.000;2024-01-15T05:38:25;12.57;;;3.25;;
56537;SDS011;42435;53.292;6.000;2024-01-15T05:40:51;19.17;;;3.30;;
56537;SDS011;42435;53.292;6.000;2024-01-15T05:43:16;22.27;;;3.35;;
56537;SDS011;42435;53.292;6.000;2024-01-15T05:45:42;16.67;;;4.05;;
56537;SDS011;42435;53.292;6.000;2024-01-15T05:48:08;17.33;;;2.65;;
56537;SDS011;42435;53.292;6.000;2024-01-15T05:50:34;11.95;;;2.78;;
56537;SDS011;42435;53.292;6.000;2024-01-15T05:53:00;13.77;;;3.00;;
56537;SDS011;42435;53.292;6.000;2024-01-15T05:55:25;11.48;;;2.47;;
56537;SDS011;42435;53.292;6.000;2024-01-15T05:57:51;14.27;;;2.10;;
56537;SDS011;42435;53.292;6.000;2024-01-15T06:00:17;12.40;;;2.42;;
56537;SDS011;42435;53.292;6.000;2024-01-15T06:02:43;14.77;;;2.70;;
56537;SDS011;42435;53.292;6.000;2024-01-15T06:05:08;5.03;;;1.50;;
56537;SDS011;42435;53.292;6.000;2024-01-15T06:07:34;5.43;;;1.42;;
56537;SDS011;42435;53.292;6.000;2024-01-15T06:10:01;7.63;;;1.50;;
56537;SDS011;42435;53.292;6.000;2024-01-15T06:12:27;3.67;;;0.70;;
56537;SDS011;42435;53.292;6.000;2024-01-15T06:14:53;4.93;;;1.48;;
56537;SDS011;42435;53.292;6.000;2024-01-15T06:17:18;5.47;;;1.20;;
56537;SDS011;42435;53.292;6.000;2024-01-15T06:19:44;8.65;;;1.50;;
56537;SDS011;42435;53.292;6.000;2024-01-15T06:22:11;8.00;;;1.35;;
56537;SDS011;42435;53.292;6.000;2024-01-15T06:24:39;4.95;;;1.23;;
56537;SDS011;42435;53.292;6.000;2024-01-15T06:27:06;5.68;;;0.80;;
56537;SDS011;42435;53.292;6.000;2024-01-15T06:29:32;6.93;;;1.20;;
56537;SDS011;42435;53.292;6.000;2024-01-15T06:31:58;4.43;;;0.85;;
56537;SDS011;42435;53.292;6.000;2024-01-15T06:34:23;4.28;;;0.80;;
56537;SDS011;42435;53.292;6.000;2024-01-15T06:36:49;5.05;;;0.82;;
56537;SDS011;42435;53.292;6.000;2024-01-15T06:39:14;5.57;;;0.88;;
56537;SDS011;42435;53.292;6.000;2024-01-15T06:41:40;6.78;;;3.38;;
56537;SDS011;42435;53.292;6.000;2024-01-15T06:44:09;6.13;;;1.17;;
56537;SDS011;42435;53.292;6.000;2024-01-15T06:46:36;6.88;;;1.45;;
56537;SDS011;42435;53.292;6.000;2024-01-15T06:49:02;8.15;;;1.40;;
56537;SDS011;42435;53.292;6.000;2024-01-15T06:51:28;10.32;;;1.65;;
56537;SDS011;42435;53.292;6.000;2024-01-15T06:53:54;11.27;;;1.55;;
56537;SDS011;42435;53.292;6.000;2024-01-15T06:56:20;12.60;;;1.90;;
56537;SDS011;42435;53.292;6.000;2024-01-15T06:58:45;11.07;;;2.05;;
56537;SDS011;42435;53.292;6.000;2024-01-15T07:01:11;12.77;;;2.40;;
56537;SDS011;42435;53.292;6.000;2024-01-15T07:03:37;10.93;;;1.90;;
56537;SDS011;42435;53.292;6.000;2024-01-15T07:06:04;9.70;;;2.20;;
56537;SDS011;42435;53.292;6.000;2024-01-15T07:08:30;8.65;;;2.13;;
56537;SDS011;42435;53.292;6.000;2024-01-15T07:10:55;10.38;;;2.30;;
56537;SDS011;42435;53.292;6.000;2024-01-15T07:13:21;10.05;;;1.90;;
56537;SDS011;42435;53.292;6.000;2024-01-15T07:15:47;6.60;;;1.55;;
56537;SDS011;42435;53.292;6.000;2024-01-15T07:18:12;5.93;;;1.48;;
56537;SDS011;42435;53.292;6.000;2024-01-15T07:20:41;4.05;;;1.10;;
56537;SDS011;42435;53.292;6.000;2024-01-15T07:23:06;8.25;;;0.90;;
56537;SDS011;42435;53.292;6.000;2024-01-15T07:25:32;6.40;;;1.45;;
56537;SDS011;42435;53.292;6.000;2024-01-15T07:27:58;10.60;;;1.63;;
56537;SDS011;42435;53.292;6.000;2024-01-15T07:30:24;6.10;;;1.35;;
56537;SDS011;42435;53.292;6.000;2024-01-15T07:32:50;6.32;;;1.40;;
56537;SDS011;42435;53.292;6.000;2024-01-15T07:35:17;10.65;;;1.90;;
56537;SDS011;42435;53.292;6.000;2024-01-15T07:37:43;4.80;;;1.20;;
56537;SDS011;42435;53.292;6.000;2024-01-15T07:40:09;9.98;;;1.77;;
56537;SDS011;42435;53.292;6.000;2024-01-15T07:42:35;5.63;;;1.38;;
56537;SDS011;42435;53.292;6.000;2024-01-15T07:45:01;10.73;;;1.88;;
56537;SDS011;42435;53.292;6.000;2024-01-15T07:47:27;7.85;;;1.40;;
56537;SDS011;42435;53.292;6.000;2024-01-15T07:49:53;6.18;;;1.65;;
56537;SDS011;42435;53.292;6.000;2024-01-15T07:52:19;8.93;;;2.47;;
56537;SDS011;42435;53.292;6.000;2024-01-15T07:54:45;8.23;;;3.33;;
56537;SDS011;42435;53.292;6.000;2024-01-15T07:57:10;3.63;;;1.60;;
56537;SDS011;42435;53.292;6.000;2024-01-15T07:59:36;6.78;;;1.30;;
56537;SDS011;42435;53.292;6.000;2024-01-15T08:02:02;3.88;;;1.02;;
56537;SDS011;42435;53.292;6.000;2024-01-15T08:04:29;8.70;;;1.00;;
56537;SDS011;42435;53.292;6.000;2024-01-15T08:06:54;6.80;;;1.10;;
56537;SDS011;42435;53.292;6.000;2024-01-15T08:09:21;5.65;;;1.48;;
56537;SDS011;42435;53.292;6.000;2024-01-15T08:11:47;6.65;;;1.70;;
56537;SDS011;42435;53.292;6.000;2024-01-15T08:14:14;4.93;;;1.10;;
56537;SDS011;42435;53.292;6.000;2024-01-15T08:16:40;7.70;;;1.60;;
56537;SDS011;42435;53.292;6.000;2024-01-15T08:19:06;5.32;;;1.45;;
56537;SDS011;42435;53.292;6.000;2024-01-15T08:21:32;7.35;;;3.83;;
56537;SDS011;42435;53.292;6.000;2024-01-15T08:23:58;10.95;;;4.15;;
56537;SDS011;42435;53.292;6.000;2024-01-15T08:26:25;11.63;;;2.83;;
56537;SDS011;42435;53.292;6.000;2024-01-15T08:28:50;4.68;;;1.75;;
56537;SDS011;42435;53.292;6.000;2024-01-15T08:31:16;16.88;;;4.55;;
56537;SDS011;42435;53.292;6.000;2024-01-15T08:33:42;12.23;;;2.42;;
56537;SDS011;42435;53.292;6.000;2024-01-15T08:36:09;12.70;;;3.45;;
56537;SDS011;42435;53.292;6.000;2024-01-15T08:38:35;6.03;;;1.90;;
56537;SDS011;42435;53.292;6.000;2024-01-15T08:41:00;7.63;;;1.95;;
56537;SDS011;42435;53.292;6.000;2024-01-15T08:43:26;10.32;;;2.97;;
56537;SDS011;42435;53.292;6.000;2024-01-15T08:45:52;10.57;;;2.50;;
56537;SDS011;42435;53.292;6.000;2024-01-15T08:48:18;13.77;;;3.28;;
56537;SDS011;42435;53.292;6.000;2024-01-15T08:50:44;5.13;;;1.60;;
56537;SDS011;42435;53.292;6.000;2024-01-15T08:53:13;9.95;;;1.92;;
56537;SDS011;42435;53.292;6.000;2024-01-15T08:55:39;4.55;;;1.42;;
56537;SDS011;42435;53.292;6.000;2024-01-15T08:58:04;8.95;;;1.95;;
56537;SDS011;42435;53.292;6.000;2024-01-15T09:00:31;7.88;;;1.20;;
56537;SDS011;42435;53.292;6.000;2024-01-15T09:02:57;10.23;;;2.42;;
56537;SDS011;42435;53.292;6.000;2024-01-15T09:05:23;9.02;;;1.75;;
56537;SDS011;42435;53.292;6.000;2024-01-15T09:07:48;5.10;;;1.40;;
56537;SDS011;42435;53.292;6.000;2024-01-15T09:10:16;10.15;;;2.00;;
56537;SDS011;42435;53.292;6.000;2024-01-15T09:12:42;10.80;;;2.17;;
56537;SDS011;42435;53.292;6.000;2024-01-15T09:15:07;9.10;;;1.60;;
56537;SDS011;42435;53.292;6.000;2024-01-15T09:17:33;7.82;;;1.40;;
56537;SDS011;42435;53.292;6.000;2024-01-15T09:19:59;2.97;;;1.30;;
56537;SDS011;42435;53.292;6.000;2024-01-15T09:22:25;8.63;;;1.40;;
56537;SDS011;42435;53.292;6.000;2024-01-15T09:24:51;3.22;;;0.82;;
56537;SDS011;42435;53.292;6.000;2024-01-15T09:27:17;6.53;;;1.05;;
56537;SDS011;42435;53.292;6.000;2024-01-15T09:29:43;6.90;;;1.13;;
56537;SDS011;42435;53.292;6.000;2024-01-15T09:32:11;4.57;;;1.05;;
56537;SDS011;42435;53.292;6.000;2024-01-15T09:34:37;4.90;;;0.90;;
56537;SDS011;42435;53.292;6.000;2024-01-15T09:37:04;9.60;;;1.40;;
56537;SDS011;42435;53.292;6.000;2024-01-15T09:39:30;10.98;;;1.55;;
56537;SDS011;42435;53.292;6.000;2024-01-15T09:41:57;6.55;;;1.33;;
56537;SDS011;42435;53.292;6.000;2024-01-15T09:44:23;9.10;;;1.35;;
56537;SDS011;42435;53.292;6.000;2024-01-15T09:46:49;5.22;;;1.08;;
56537;SDS011;42435;53.292;6.000;2024-01-15T09:49:18;5.50;;;0.95;;
56537;SDS011;42435;53.292;6.000;2024-01-15T09:51:44;2.10;;;1.10;;
56537;SDS011;42435;53.292;6.000;2024-01-15T09:54:13;3.25;;;0.80;;
56537;SDS011;42435;53.292;6.000;2024-01-15T09:56:42;8.68;;;1.08;;
56537;SDS011;42435;53.292;6.000;2024-01-15T09:59:17;5.57;;;0.98;;
56537;SDS011;42435;53.292;6.000;2024-01-15T10:01:44;5.47;;;1.23;;
56537;SDS011;42435;53.292;6.000;2024-01-15T10:04:13;5.35;;;0.90;;
56537;SDS011;42435;53.292;6.000;2024-01-15T10:06:40;7.82;;;1.45;;
56537;SDS011;42435;53.292;6.000;2024-01-15T10:09:14;6.38;;;0.70;;
56537;SDS011;42435;53.292;6.000;2024-01-15T10:11:43;3.67;;;0.98;;
56537;SDS011;42435;53.292;6.000;2024-01-15T10:14:09;5.32;;;1.55;;
56537;SDS011;42435;53.292;6.000;2024-01-15T10:16:42;7.72;;;1.73;;
56537;SDS011;42435;53.292;6.000;2024-01-15T10:19:08;9.90;;;2.65;;
56537;SDS011;42435;53.292;6.000;2024-01-15T10:21:34;5.82;;;0.98;;
56537;SDS011;42435;53.292;6.000;2024-01-15T10:24:00;2.78;;;0.50;;
56537;SDS011;42435;53.292;6.000;2024-01-15T10:26:27;3.65;;;0.40;;
56537;SDS011;42435;53.292;6.000;2024-01-15T10:28:53;7.05;;;0.90;;
56537;SDS011;42435;53.292;6.000;2024-01-15T10:31:19;6.57;;;1.00;;
56537;SDS011;42435;53.292;6.000;2024-01-15T10:33:46;8.43;;;0.60;;
56537;SDS011;42435;53.292;6.000;2024-01-15T10:36:13;5.78;;;1.70;;
56537;SDS011;42435;53.292;6.000;2024-01-15T10:38:41;12.90;;;2.50;;
56537;SDS011;42435;53.292;6.000;2024-01-15T10:41:08;6.90;;;1.30;;
56537;SDS011;42435;53.292;6.000;2024-01-15T10:43:34;7.85;;;1.50;;
56537;SDS011;42435;53.292;6.000;2024-01-15T10:46:00;9.77;;;1.60;;
56537;SDS011;42435;53.292;6.000;2024-01-15T10:48:26;7.80;;;1.98;;
56537;SDS011;42435;53.292;6.000;2024-01-15T10:50:53;6.15;;;1.38;;
56537;SDS011;42435;53.292;6.000;2024-01-15T10:53:19;5.82;;;1.40;;
56537;SDS011;42435;53.292;6.000;2024-01-15T10:55:46;5.72;;;0.95;;
56537;SDS011;42435;53.292;6.000;2024-01-15T10:58:16;3.50;;;0.30;;
56537;SDS011;42435;53.292;6.000;2024-01-15T11:00:43;1.85;;;0.50;;
56537;SDS011;42435;53.292;6.000;2024-01-15T11:03:09;3.65;;;0.32;;
56537;SDS011;42435;53.292;6.000;2024-01-15T11:05:42;2.63;;;0.80;;
56537;SDS011;42435;53.292;6.000;2024-01-15T11:08:08;1.73;;;0.73;;
56537;SDS011;42435;53.292;6.000;2024-01-15T11:10:41;2.55;;;0.25;;
56537;SDS011;42435;53.292;6.000;2024-01-15T11:15:56;5.95;;;0.60;;
56537;SDS011;42435;53.292;6.000;2024-01-15T11:18:26;2.28;;;0.30;;
56537;SDS011;42435;53.292;6.000;2024-01-15T11:29:28;2.00;;;0.45;;
56537;SDS011;42435;53.292;6.000;2024-01-15T11:31:57;6.40;;;0.75;;
56537;SDS011;42435;53.292;6.000;2024-01-15T11:38:15;6.22;;;1.05;;
56537;SDS011;42435;53.292;6.000;2024-01-15T11:40:20;3.95;;;0.90;;
56537;SDS011;42435;53.292;6.000;2024-01-15T11:42:47;4.25;;;0.95;;
56537;SDS011;42435;53.292;6.000;2024-01-15T11:45:18;4.30;;;0.70;;
56537;SDS011;42435;53.292;6.000;2024-01-15T11:50:27;7.53;;;1.38;;
56537;SDS011;42435;53.292;6.000;2024-01-15T11:52:59;5.57;;;1.40;;
56537;SDS011;42435;53.292;6.000;2024-01-15T11:55:27;11.98;;;4.22;;
56537;SDS011;42435;53.292;6.000;2024-01-15T11:57:57;5.70;;;1.50;;
56537;SDS011;42435;53.292;6.000;2024-01-15T12:00:25;5.28;;;1.45;;
56537;SDS011;42435;53.292;6.000;2024-01-15T12:02:51;6.13;;;1.17;;
56537;SDS011;42435;53.292;6.000;2024-01-15T12:05:17;11.85;;;1.55;;
56537;SDS011;42435;53.292;6.000;2024-01-15T12:07:45;6.55;;;1.13;;
56537;SDS011;42435;53.292;6.000;2024-01-15T12:10:15;14.65;;;2.55;;
56537;SDS011;42435;53.292;6.000;2024-01-15T12:15:34;11.90;;;1.50;;
56537;SDS011;42435;53.292;6.000;2024-01-15T12:18:01;10.98;;;1.52;;
56537;SDS011;42435;53.292;6.000;2024-01-15T12:20:28;9.93;;;1.30;;
56537;SDS011;42435;53.292;6.000;2024-01-15T12:22:55;9.27;;;1.63;;
56537;SDS011;42435;53.292;6.000;2024-01-15T12:25:24;5.63;;;0.95;;
56537;SDS011;42435;53.292;6.000;2024-01-15T12:27:52;8.45;;;1.70;;
56537;SDS011;42435;53.292;6.000;2024-01-15T12:30:18;8.23;;;1.55;;
56537;SDS011;42435;53.292;6.000;2024-01-15T12:32:44;6.40;;;1.17;;
56537;SDS011;42435;53.292;6.000;2024-01-15T12:35:10;5.38;;;1.40;;
56537;SDS011;42435;53.292;6.000;2024-01-15T12:37:37;7.10;;;2.50;;
56537;SDS011;42435;53.292;6.000;2024-01-15T12:40:04;5.57;;;1.50;;
56537;SDS011;42435;53.292;6.000;2024-01-15T12:42:32;3.60;;;0.93;;
56537;SDS011;42435;53.292;6.000;2024-01-15T12:44:58;5.30;;;0.90;;
56537;SDS011;42435;53.292;6.000;2024-01-15T12:47:24;4.80;;;1.00;;
56537;SDS011;42435;53.292;6.000;2024-01-15T12:49:51;5.20;;;1.00;;
56537;SDS011;42435;53.292;6.000;2024-01-15T12:52:20;13.73;;;1.25;;
56537;SDS011;42435;53.292;6.000;2024-01-15T12:54:47;6.65;;;1.80;;
56537;SDS011;42435;53.292;6.000;2024-01-15T12:57:14;10.35;;;2.03;;
56537;SDS011;42435;53.292;6.000;2024-01-15T12:59:39;8.77;;;1.30;;
56537;SDS011;42435;53.292;6.000;2024-01-15T13:02:05;8.75;;;1.40;;
56537;SDS011;42435;53.292;6.000;2024-01-15T13:04:31;10.90;;;1.80;;
56537;SDS011;42435;53.292;6.000;2024-01-15T13:06:57;9.25;;;2.00;;
56537;SDS011;42435;53.292;6.000;2024-01-15T13:09:23;12.52;;;2.63;;
56537;SDS011;42435;53.292;6.000;2024-01-15T13:11:48;20.73;;;4.28;;
56537;SDS011;42435;53.292;6.000;2024-01-15T13:14:14;13.90;;;2.83;;
56537;SDS011;42435;53.292;6.000;2024-01-15T13:16:40;12.90;;;3.35;;
56537;SDS011;42435;53.292;6.000;2024-01-15T13:19:07;14.10;;;3.10;;
56537;SDS011;42435;53.292;6.000;2024-01-15T13:21:34;12.80;;;2.22;;
56537;SDS011;42435;53.292;6.000;2024-01-15T13:23:59;15.98;;;2.90;;
56537;SDS011;42435;53.292;6.000;2024-01-15T13:26:25;9.95;;;2.35;;
56537;SDS011;42435;53.292;6.000;2024-01-15T13:28:51;9.32;;;1.67;;
56537;SDS011;42435;53.292;6.000;2024-01-15T13:31:18;10.27;;;2.08;;
56537;SDS011;42435;53.292;6.000;2024-01-15T13:33:44;8.48;;;1.23;;
56537;SDS011;42435;53.292;6.000;2024-01-15T13:36:09;9.90;;;1.92;;
56537;SDS011;42435;53.292;6.000;2024-01-15T13:38:36;16.15;;;3.28;;
56537;SDS011;42435;53.292;6.000;2024-01-15T13:41:06;10.48;;;1.80;;
56537;SDS011;42435;53.292;6.000;2024-01-15T13:43:33;11.35;;;2.45;;
56537;SDS011;42435;53.292;6.000;2024-01-15T13:45:59;12.55;;;2.05;;
56537;SDS011;42435;53.292;6.000;2024-01-15T13:48:25;11.52;;;2.22;;
56537;SDS011;42435;53.292;6.000;2024-01-15T13:50:51;9.70;;;1.38;;
56537;SDS011;42435;53.292;6.000;2024-01-15T13:53:18;7.03;;;2.22;;
56537;SDS011;42435;53.292;6.000;2024-01-15T13:55:44;9.25;;;1.80;;
56537;SDS011;42435;53.292;6.000;2024-01-15T13:58:10;8.82;;;1.65;;
56537;SDS011;42435;53.292;6.000;2024-01-15T14:00:36;8.48;;;1.58;;
56537;SDS011;42435;53.292;6.000;2024-01-15T14:03:02;8.13;;;1.67;;
56537;SDS011;42435;53.292;6.000;2024-01-15T14:05:28;12.85;;;3.63;;
56537;SDS011;42435;53.292;6.000;2024-01-15T14:07:54;9.55;;;1.60;;
56537;SDS011;42435;53.292;6.000;2024-01-15T14:10:20;7.78;;;1.42;;
56537;SDS011;42435;53.292;6.000;2024-01-15T14:12:46;12.38;;;1.83;;
56537;SDS011;42435;53.292;6.000;2024-01-15T14:15:11;6.30;;;1.10;;
56537;SDS011;42435;53.292;6.000;2024-01-15T14:17:37;3.50;;;1.10;;
56537;SDS011;42435;53.292;6.000;2024-01-15T14:20:07;4.28;;;0.90;;
56537;SDS011;42435;53.292;6.000;2024-01-15T14:22:34;5.10;;;0.80;;
56537;SDS011;42435;53.292;6.000;2024-01-15T14:25:00;6.80;;;1.27;;
56537;SDS011;42435;53.292;6.000;2024-01-15T14:27:26;4.53;;;0.90;;
56537;SDS011;42435;53.292;6.000;2024-01-15T14:29:51;9.57;;;1.65;;
56537;SDS011;42435;53.292;6.000;2024-01-15T14:32:17;5.30;;;0.80;;
56537;SDS011;42435;53.292;6.000;2024-01-15T14:34:43;4.15;;;0.80;;
56537;SDS011;42435;53.292;6.000;2024-01-15T14:37:09;5.70;;;1.38;;
56537;SDS011;42435;53.292;6.000;2024-01-15T14:39:34;7.00;;;1.08;;
56537;SDS011;42435;53.292;6.000;2024-01-15T14:42:00;5.60;;;1.63;;
56537;SDS011;42435;53.292;6.000;2024-01-15T14:44:27;7.50;;;1.42;;
56537;SDS011;42435;53.292;6.000;2024-01-15T14:46:55;6.90;;;1.90;;
56537;SDS011;42435;53.292;6.000;2024-01-15T14:49:23;4.38;;;1.23;;
56537;SDS011;42435;53.292;6.000;2024-01-15T14:51:50;5.53;;;1.92;;
56537;SDS011;42435;53.292;6.000;2024-01-15T14:54:15;11.55;;;3.55;;
56537;SDS011;42435;53.292;6.000;2024-01-15T14:56:41;5.22;;;1.40;;